Time;durP1;ratioP1;P1;durP2;ratioP2;P2;SDS_P1;SDS_P2;PMS_P1;PMS_P2;Temp;Humidity;BMP_temperature;BMP_pressure;BME280_temperature;BME280_humidity;BME280_pressure;Samples;Min_cycle;Max_cycle;Signal;HPM_P1;HPM_P2
2022/08/16 00:00:44;;;;;;;;;;;;;;;31.84;30.97;98237.00;4515742;31;35156;-86
2022/08/16 00:03:11;;;;;;;;;;;;;;;31.66;31.46;98231.44;4514380;31;33821;-86
2022/08/16 00:05:41;;;;;;;;;;;;;;;31.30;32.10;98227.53;4515781;31;33877;-85
2022/08/16 00:08:15;;;;;;;;;;;;;;;31.28;32.13;98237.47;4515914;31;34538;-86
2022/08/16 00:11:04;;;;;;;;;;;;;;;31.42;31.81;98237.16;4515709;31;33925;-86
2022/08/16 00:13:32;;;;;;;;;;;;;;;31.88;30.99;98246.50;4514574;31;33607;-86
2022/08/16 00:16:08;;;;;;;;;;;;;;;31.68;31.28;98244.72;4514006;31;33820;-85
2022/08/16 00:18:56;;;;;;;;;;;;;;;31.67;31.30;98240.34;4515888;31;35256;-85
2022/08/16 00:21:24;;;;;;;;;;;;;;;31.63;31.40;98237.09;4515623;31;35050;-85
2022/08/16 00:23:55;;;;;;;;;;;;;;;31.05;32.24;98239.47;4515873;31;33535;-85
2022/08/16 00:26:24;;;;;;;;;;;;;;;30.94;32.24;98240.37;4515154;31;34275;-85
2022/08/16 00:29:04;;;;;;;;;;;;;;;31.42;31.27;98237.16;4515580;31;34237;-86
2022/08/16 00:31:32;;;;;;;;;;;;;;;31.70;30.71;98245.44;4515692;31;34022;-85
2022/08/16 00:34:20;;;;;;;;;;;;;;;31.53;31.28;98238.91;4514789;31;33268;-85
2022/08/16 00:36:47;;;;;;;;;;;;;;;31.68;30.81;98247.41;4515317;31;34973;-85
2022/08/16 00:39:21;;;;;;;;;;;;;;;31.88;30.44;98249.19;4515527;31;34825;-86
2022/08/16 00:41:49;;;;;;;;;;;;;;;31.97;30.21;98239.47;4515403;31;34239;-85
2022/08/16 00:44:19;;;;;;;;;;;;;;;32.05;29.87;98245.00;4515687;31;32732;-85
2022/08/16 00:46:48;;;;;;;;;;;;;;;31.97;29.85;98248.37;4507261;31;34295;-86
2022/08/16 00:49:33;;;;;;;;;;;;;;;31.94;29.74;98247.81;4515478;31;35264;-86
2022/08/16 00:52:10;;;;;;;;;;;;;;;31.75;29.96;98243.22;4515461;31;34312;-85
2022/08/16 00:54:57;;;;;;;;;;;;;;;31.91;29.51;98240.87;4514014;31;33380;-86
2022/08/16 00:57:26;;;;;;;;;;;;;;;31.74;29.68;98246.84;4514251;31;33818;-86
2022/08/16 01:00:14;;;;;;;;;;;;;;;31.76;29.67;98246.72;4514426;31;34469;-85
2022/08/16 01:02:50;;;;;;;;;;;;;;;31.75;29.58;98245.88;4515402;31;33679;-85
2022/08/16 01:05:18;;;;;;;;;;;;;;;31.50;29.99;98255.22;4500993;31;32275;-85
2022/08/16 01:07:50;;;;;;;;;;;;;;;31.54;30.10;98251.28;4515394;31;33835;-85
2022/08/16 01:10:23;;;;;;;;;;;;;;;31.60;30.05;98255.28;4514024;31;33983;-86
2022/08/16 01:12:59;;;;;;;;;;;;;;;31.48;30.36;98255.37;4513351;31;33831;-85
2022/08/16 01:15:29;;;;;;;;;;;;;;;31.46;30.65;98251.12;4514748;31;33503;-86
2022/08/16 01:17:56;;;;;;;;;;;;;;;31.37;30.68;98260.81;4515778;31;33985;-86
2022/08/16 01:20:23;;;;;;;;;;;;;;;31.24;30.94;98257.47;4515511;31;34151;-86
2022/08/16 01:23:08;;;;;;;;;;;;;;;31.12;31.22;98253.19;4513927;31;34284;-85
2022/08/16 01:25:37;;;;;;;;;;;;;;;31.41;30.80;98248.00;4515074;31;33534;-86
2022/08/16 01:28:07;;;;;;;;;;;;;;;31.37;30.83;98258.16;4514554;31;34622;-85
2022/08/16 01:30:36;;;;;;;;;;;;;;;31.25;31.15;98262.72;4514062;31;34181;-85
2022/08/16 01:33:17;;;;;;;;;;;;;;;31.27;31.12;98254.53;4515001;31;34051;-86
2022/08/16 01:35:51;;;;;;;;;;;;;;;31.19;31.31;98257.03;4515524;31;34189;-85
2022/08/16 01:38:21;;;;;;;;;;;;;;;31.22;31.22;98256.78;4513933;31;33517;-85
2022/08/16 01:41:06;;;;;;;;;;;;;;;31.24;31.21;98252.12;4514019;31;34384;-86
2022/08/16 01:43:34;;;;;;;;;;;;;;;31.11;31.45;98259.53;4514936;31;34999;-85
2022/08/16 01:46:02;;;;;;;;;;;;;;;31.09;31.42;98250.75;4515218;31;34314;-86
2022/08/16 01:48:58;;;;;;;;;;;;;;;31.01;31.56;98259.44;4515350;31;33629;-86
2022/08/16 01:51:26;;;;;;;;;;;;;;;31.06;31.51;98256.37;4515202;31;34143;-86
2022/08/16 01:53:54;;;;;;;;;;;;;;;31.07;31.45;98250.91;4514591;31;34234;-86
2022/08/16 01:56:22;;;;;;;;;;;;;;;31.08;31.39;98257.09;4515264;31;32996;-86
2022/08/16 01:58:53;;;;;;;;;;;;;;;31.06;31.35;98257.22;4514026;31;34949;-86
2022/08/16 02:01:21;;;;;;;;;;;;;;;31.02;31.33;98251.28;4515170;31;35266;-85
2022/08/16 02:03:52;;;;;;;;;;;;;;;30.92;31.54;98244.19;4513882;31;34188;-85
2022/08/16 02:06:25;;;;;;;;;;;;;;;30.89;31.57;98253.31;4515147;31;32798;-86
2022/08/16 02:09:02;;;;;;;;;;;;;;;30.99;31.32;98254.25;4515084;31;33748;-86
2022/08/16 02:11:32;;;;;;;;;;;;;;;30.83;31.59;98251.16;4514993;31;34346;-85
2022/08/16 02:14:22;;;;;;;;;;;;;;;30.73;31.63;98271.63;4515302;31;34189;-86
2022/08/16 02:16:54;;;;;;;;;;;;;;;30.62;31.77;98269.00;4515004;31;33172;-86
2022/08/16 02:19:23;;;;;;;;;;;;;;;30.77;31.77;98254.38;4515008;31;33857;-86
2022/08/16 02:22:12;;;;;;;;;;;;;;;30.73;31.68;98248.41;4510360;31;35318;-86
2022/08/16 02:24:59;;;;;;;;;;;;;;;30.61;31.82;98245.88;4514893;31;34342;-86
2022/08/16 02:27:26;;;;;;;;;;;;;;;30.95;31.24;98246.59;4514661;31;33180;-86
2022/08/16 02:29:57;;;;;;;;;;;;;;;30.73;31.50;98247.56;4514959;31;34797;-85
2022/08/16 02:32:33;;;;;;;;;;;;;;;30.49;31.88;98243.25;4514712;31;34484;-85
2022/08/16 02:35:19;;;;;;;;;;;;;;;30.40;31.94;98244.03;4515090;31;34175;-86
2022/08/16 02:37:51;;;;;;;;;;;;;;;30.50;31.65;98250.34;4514517;31;34239;-85
2022/08/16 02:40:23;;;;;;;;;;;;;;;30.48;31.69;98243.41;4514525;31;34679;-86
2022/08/16 02:42:52;;;;;;;;;;;;;;;30.54;31.52;98249.09;4514467;31;35093;-86
2022/08/16 02:45:20;;;;;;;;;;;;;;;30.70;31.27;98240.63;4514817;31;33924;-86
2022/08/16 02:47:54;;;;;;;;;;;;;;;30.56;31.57;98248.13;4514708;31;33661;-86
2022/08/16 02:50:41;;;;;;;;;;;;;;;30.30;31.98;98248.44;4514160;31;34065;-85
2022/08/16 02:53:28;;;;;;;;;;;;;;;30.53;31.51;98239.38;4513709;31;34359;-86
2022/08/16 02:55:57;;;;;;;;;;;;;;;30.49;31.50;98235.25;4514587;31;33794;-86
2022/08/16 02:58:26;;;;;;;;;;;;;;;30.53;31.48;98236.72;4514206;31;34267;-85
2022/08/16 03:00:56;;;;;;;;;;;;;;;30.46;31.54;98237.34;4514119;31;34048;-86
2022/08/16 03:03:25;;;;;;;;;;;;;;;30.51;31.48;98241.31;4514490;31;35081;-86
2022/08/16 03:05:52;;;;;;;;;;;;;;;30.50;31.49;98244.16;4513001;31;33846;-85
2022/08/16 03:08:21;;;;;;;;;;;;;;;30.47;31.66;98233.69;4514347;31;33347;-86
2022/08/16 03:11:09;;;;;;;;;;;;;;;30.37;32.01;98246.97;4514484;31;35087;-85
2022/08/16 03:13:45;;;;;;;;;;;;;;;30.40;31.95;98244.03;4514578;31;34848;-86
2022/08/16 03:16:13;;;;;;;;;;;;;;;30.49;31.81;98237.91;4514480;31;34160;-85
2022/08/16 03:19:01;;;;;;;;;;;;;;;30.59;31.68;98247.87;4513854;31;34319;-86
2022/08/16 03:21:28;;;;;;;;;;;;;;;30.31;32.26;98244.81;4513067;31;34510;-86
2022/08/16 03:24:06;;;;;;;;;;;;;;;30.54;31.95;98246.44;4513205;31;34392;-86
2022/08/16 03:26:54;;;;;;;;;;;;;;;30.58;31.82;98260.41;4513157;31;34716;-85
2022/08/16 03:29:26;;;;;;;;;;;;;;;30.64;31.87;98259.84;4513900;31;34398;-86
2022/08/16 03:31:57;;;;;;;;;;;;;;;30.59;31.97;98269.25;4513895;31;34302;-86
2022/08/16 03:34:26;;;;;;;;;;;;;;;30.68;31.68;98268.47;4512818;31;35469;-86
2022/08/16 03:36:53;;;;;;;;;;;;;;;30.54;31.81;98272.34;4514068;31;33610;-85
2022/08/16 03:39:21;;;;;;;;;;;;;;;30.17;32.48;98283.38;4514697;31;33005;-86
2022/08/16 03:41:49;;;;;;;;;;;;;;;30.16;32.58;98280.81;4516488;31;33870;-86
2022/08/16 03:44:27;;;;;;;;;;;;;;;30.34;32.27;98281.97;4516125;31;34168;-85
2022/08/16 03:47:14;;;;;;;;;;;;;;;30.31;32.46;98287.59;4516082;31;34962;-86
2022/08/16 03:49:46;;;;;;;;;;;;;;;30.45;32.23;98278.44;4515799;31;33134;-86
2022/08/16 03:52:19;;;;;;;;;;;;;;;30.53;32.11;98292.88;4516415;31;33238;-86
2022/08/16 03:54:50;;;;;;;;;;;;;;;30.57;32.08;98289.94;4516007;31;34404;-85
2022/08/16 03:57:25;;;;;;;;;;;;;;;30.29;32.66;98292.22;4516047;31;34900;-86
2022/08/16 04:00:12;;;;;;;;;;;;;;;30.17;33.12;98293.22;4500398;31;33889;-85
2022/08/16 04:03:05;;;;;;;;;;;;;;;30.33;32.93;98288.31;4509604;31;35050;-86
2022/08/16 04:05:35;;;;;;;;;;;;;;;30.42;32.85;98289.38;4514665;31;34365;-86
2022/08/16 04:08:04;;;;;;;;;;;;;;;30.51;32.68;98285.94;4513604;31;34321;-86
2022/08/16 04:10:51;;;;;;;;;;;;;;;30.59;32.55;98282.62;4504130;31;33952;-86
2022/08/16 04:13:18;;;;;;;;;;;;;;;30.68;32.38;98290.72;4516215;31;34193;-85
2022/08/16 04:16:06;;;;;;;;;;;;;;;30.61;32.61;98292.25;4515838;31;33905;-86
2022/08/16 04:18:35;;;;;;;;;;;;;;;30.70;32.90;98293.28;4515746;31;35134;-85
2022/08/16 04:21:03;;;;;;;;;;;;;;;29.75;34.60;98299.22;4516137;31;33514;-85
2022/08/16 04:23:32;;;;;;;;;;;;;;;30.22;33.77;98304.38;4515922;31;34231;-86
2022/08/16 04:25:59;;;;;;;;;;;;;;;30.58;33.20;98300.53;4515894;31;34550;-85
2022/08/16 04:28:29;;;;;;;;;;;;;;;30.77;32.77;98300.72;4515716;31;34248;-85
2022/08/16 04:31:17;;;;;;;;;;;;;;;30.85;32.75;98300.06;4516031;31;33749;-86
2022/08/16 04:33:46;;;;;;;;;;;;;;;30.91;32.80;98293.31;4515630;31;34190;-86
2022/08/16 04:36:18;;;;;;;;;;;;;;;31.11;32.45;98299.69;4515716;31;33886;-85
2022/08/16 04:38:47;;;;;;;;;;;;;;;31.13;32.49;98295.03;4514137;31;34777;-86
2022/08/16 04:41:16;;;;;;;;;;;;;;;31.14;32.63;98292.25;4515547;31;34137;-86
2022/08/16 04:43:44;;;;;;;;;;;;;;;31.34;32.61;98292.38;4514680;31;33726;-86
2022/08/16 04:46:15;;;;;;;;;;;;;;;31.47;32.50;98301.87;4515807;31;35088;-86
2022/08/16 04:49:03;;;;;;;;;;;;;;;31.68;32.09;98304.53;4515466;31;34315;-86
2022/08/16 04:51:31;;;;;;;;;;;;;;;31.78;31.86;98307.22;4515580;31;32911;-85
2022/08/16 04:54:02;;;;;;;;;;;;;;;31.72;32.21;98305.09;4515100;31;34359;-86
2022/08/16 04:56:29;;;;;;;;;;;;;;;31.71;31.99;98308.78;4515277;31;34294;-86
2022/08/16 04:58:57;;;;;;;;;;;;;;;31.75;32.14;98304.84;4515591;31;34215;-86
2022/08/16 05:01:25;;;;;;;;;;;;;;;31.41;33.12;98307.78;4515431;31;33558;-86
2022/08/16 05:04:13;;;;;;;;;;;;;;;31.39;33.14;98311.56;4515435;31;33924;-86
2022/08/16 05:06:46;;;;;;;;;;;;;;;31.92;32.26;98311.41;4515685;31;34241;-86
2022/08/16 05:09:15;;;;;;;;;;;;;;;31.86;32.09;98310.13;4515678;31;34619;-86
2022/08/16 05:11:42;;;;;;;;;;;;;;;31.85;32.37;98313.78;4515243;31;34516;-85
2022/08/16 05:14:10;;;;;;;;;;;;;;;31.58;32.88;98321.53;4515217;31;34371;-85
2022/08/16 05:16:46;;;;;;;;;;;;;;;31.78;32.39;98322.47;4514292;31;34105;-86
2022/08/16 05:19:18;;;;;;;;;;;;;;;32.22;31.53;98331.97;4515463;31;34193;-85
2022/08/16 05:21:49;;;;;;;;;;;;;;;32.21;31.07;98335.62;4515653;31;32179;-86
2022/08/16 05:24:17;;;;;;;;;;;;;;;32.28;30.83;98327.88;4515384;31;33626;-85
2022/08/16 05:26:48;;;;;;;;;;;;;;;32.10;29.75;98335.75;4515597;31;34422;-86
2022/08/16 05:29:17;;;;;;;;;;;;;;;31.55;31.33;98333.34;4515573;31;33754;-85
2022/08/16 05:31:47;;;;;;;;;;;;;;;31.44;32.24;98338.78;4515185;31;33625;-85
2022/08/16 05:34:20;;;;;;;;;;;;;;;30.81;34.02;98343.28;4515205;31;35043;-86
2022/08/16 05:36:49;;;;;;;;;;;;;;;30.01;35.79;98345.22;4515153;31;34060;-86
2022/08/16 05:39:18;;;;;;;;;;;;;;;28.76;37.57;98342.41;4515263;31;34935;-85
2022/08/16 05:41:47;;;;;;;;;;;;;;;28.97;37.43;98344.41;4514167;31;33443;-85
2022/08/16 05:44:18;;;;;;;;;;;;;;;30.35;34.64;98353.22;4514888;31;33773;-84
2022/08/16 05:46:55;;;;;;;;;;;;;;;30.78;33.86;98355.06;4515418;31;34307;-85
2022/08/16 05:49:24;;;;;;;;;;;;;;;30.75;32.69;98358.00;4513929;31;34375;-85
2022/08/16 05:52:07;;;;;;;;;;;;;;;30.49;33.35;98360.09;4514267;31;33352;-85
2022/08/16 05:54:38;;;;;;;;;;;;;;;29.80;34.13;98349.59;4514982;31;33854;-86
2022/08/16 05:57:16;;;;;;;;;;;;;;;30.48;32.99;98345.03;4515457;31;35262;-85
2022/08/16 05:59:46;;;;;;;;;;;;;;;30.23;33.40;98348.84;4514908;31;34687;-85
2022/08/16 06:02:17;;;;;;;;;;;;;;;29.68;34.59;98345.22;4514604;31;33419;-86
2022/08/16 06:04:45;;;;;;;;;;;;;;;29.97;34.53;98346.44;4513453;31;34342;-86
2022/08/16 06:07:13;;;;;;;;;;;;;;;30.15;34.25;98359.28;4515122;31;34158;-85
2022/08/16 06:09:57;;;;;;;;;;;;;;;29.99;34.70;98360.53;4515308;31;34639;-85
2022/08/16 06:12:26;;;;;;;;;;;;;;;29.73;35.17;98357.25;4514981;31;33094;-85
2022/08/16 06:15:00;;;;;;;;;;;;;;;29.36;36.11;98345.91;4502628;31;34132;-86
2022/08/16 06:17:31;;;;;;;;;;;;;;;30.42;34.25;98343.75;4515252;31;34440;-86
2022/08/16 06:20:13;;;;;;;;;;;;;;;29.98;35.00;98340.13;4515012;31;34996;-85
2022/08/16 06:22:55;;;;;;;;;;;;;;;29.91;35.14;98349.59;4514833;31;33404;-86
2022/08/16 06:25:31;;;;;;;;;;;;;;;29.86;35.32;98351.78;4498795;31;34454;-85
2022/08/16 06:28:06;;;;;;;;;;;;;;;30.53;34.51;98346.37;4498726;31;34747;-85
2022/08/16 06:30:36;;;;;;;;;;;;;;;29.50;36.54;98340.31;4513519;31;34349;-85
2022/08/16 06:33:12;;;;;;;;;;;;;;;30.12;35.78;98340.81;4514887;31;33920;-86
2022/08/16 06:35:46;;;;;;;;;;;;;;;30.24;35.50;98343.41;4514906;31;35118;-86
2022/08/16 06:38:13;;;;;;;;;;;;;;;29.33;36.00;98338.97;4513592;31;35133;-85
2022/08/16 06:41:05;;;;;;;;;;;;;;;29.26;35.54;98332.41;4514885;31;34345;-85
2022/08/16 06:43:40;;;;;;;;;;;;;;;30.02;34.24;98324.69;4513478;31;33480;-85
2022/08/16 06:46:20;;;;;;;;;;;;;;;29.28;35.10;98318.91;4514888;31;34169;-86
2022/08/16 06:48:47;;;;;;;;;;;;;;;29.47;34.34;98319.22;4501950;31;33949;-86
2022/08/16 06:51:18;;;;;;;;;;;;;;;29.73;34.44;98319.00;4514503;31;34471;-86
2022/08/16 06:53:48;;;;;;;;;;;;;;;30.35;32.23;98321.16;4514504;31;33520;-85
2022/08/16 06:56:19;;;;;;;;;;;;;;;29.31;33.32;98313.34;4514278;31;33903;-86
2022/08/16 06:58:52;;;;;;;;;;;;;;;30.25;31.02;98320.19;4514367;31;34362;-86
2022/08/16 07:01:20;;;;;;;;;;;;;;;30.34;29.63;98315.91;4513201;31;34260;-86
2022/08/16 07:04:07;;;;;;;;;;;;;;;30.75;28.67;98312.50;4513451;31;33442;-86
2022/08/16 07:06:40;;;;;;;;;;;;;;;31.12;28.56;98320.97;4514381;31;34962;-86
2022/08/16 07:09:10;;;;;;;;;;;;;;;31.76;28.54;98319.09;4500024;31;33963;-86
2022/08/16 07:11:38;;;;;;;;;;;;;;;32.20;28.51;98329.44;4514401;31;34942;-86
2022/08/16 07:14:15;;;;;;;;;;;;;;;31.82;27.76;98331.94;4515548;31;33195;-86
2022/08/16 07:16:56;;;;;;;;;;;;;;;30.57;29.97;98344.28;4516277;31;33732;-86
2022/08/16 07:19:26;;;;;;;;;;;;;;;31.02;29.73;98339.63;4500278;31;34162;-85
2022/08/16 07:22:14;;;;;;;;;;;;;;;31.73;28.62;98339.81;4499400;31;34173;-86
2022/08/16 07:25:02;;;;;;;;;;;;;;;31.83;29.75;98350.56;4500556;31;33274;-86
2022/08/16 07:27:29;;;;;;;;;;;;;;;31.48;33.21;98351.81;4503664;31;34843;-84
2022/08/16 07:30:00;;;;;;;;;;;;;;;31.08;35.33;98374.91;4516356;31;34360;-84
2022/08/16 07:32:31;;;;;;;;;;;;;;;31.10;36.51;98372.94;4515792;31;35124;-85
2022/08/16 07:35:02;;;;;;;;;;;;;;;30.57;39.13;98388.91;4515577;31;33381;-85
2022/08/16 07:37:29;;;;;;;;;;;;;;;30.41;39.55;98383.97;4515619;31;35181;-84
2022/08/16 07:39:59;;;;;;;;;;;;;;;30.11;39.69;98381.91;4516589;31;34190;-84
2022/08/16 07:42:26;;;;;;;;;;;;;;;29.92;39.57;98386.03;4516071;31;34548;-84
2022/08/16 07:45:14;;;;;;;;;;;;;;;29.91;39.50;98384.34;4516269;31;34408;-84
2022/08/16 07:47:43;;;;;;;;;;;;;;;29.70;38.96;98388.69;4516097;31;34074;-84
2022/08/16 07:50:12;;;;;;;;;;;;;;;29.76;38.09;98383.72;4516134;31;34438;-84
2022/08/16 07:53:00;;;;;;;;;;;;;;;29.25;38.96;98377.91;4515872;31;33932;-84
2022/08/16 07:55:29;;;;;;;;;;;;;;;30.15;37.09;98384.19;4515921;31;33947;-84
2022/08/16 07:58:16;;;;;;;;;;;;;;;30.35;35.89;98385.31;4516030;31;34189;-84
2022/08/16 08:00:44;;;;;;;;;;;;;;;30.14;36.19;98387.00;4516134;31;33991;-84
2022/08/16 08:03:12;;;;;;;;;;;;;;;30.66;35.00;98385.50;4516166;31;34175;-84
2022/08/16 08:05:41;;;;;;;;;;;;;;;30.75;35.14;98387.44;4516288;31;33555;-84
2022/08/16 08:08:10;;;;;;;;;;;;;;;30.11;36.06;98384.56;4516256;31;33907;-84
2022/08/16 08:10:58;;;;;;;;;;;;;;;30.97;34.59;98381.16;4515959;31;34504;-84
2022/08/16 08:13:36;;;;;;;;;;;;;;;30.75;35.58;98395.47;4516233;31;34131;-85
2022/08/16 08:16:10;;;;;;;;;;;;;;;30.72;34.97;98393.00;4516076;31;33995;-84
2022/08/16 08:18:47;;;;;;;;;;;;;;;31.05;34.29;98388.53;4515946;31;34323;-84
2022/08/16 08:21:23;;;;;;;;;;;;;;;30.83;34.58;98400.19;4515717;31;34367;-84
2022/08/16 08:23:56;;;;;;;;;;;;;;;31.12;34.20;98395.09;4516170;31;33658;-84
2022/08/16 08:26:24;;;;;;;;;;;;;;;32.08;33.05;98402.06;4515734;31;34377;-84
2022/08/16 08:28:51;;;;;;;;;;;;;;;32.05;31.81;98400.50;4516085;31;33230;-84
2022/08/16 08:31:20;;;;;;;;;;;;;;;32.30;31.60;98401.00;4516083;31;33952;-84
2022/08/16 08:33:48;;;;;;;;;;;;;;;31.52;31.78;98405.97;4515349;31;35109;-84
2022/08/16 08:36:26;;;;;;;;;;;;;;;31.91;30.65;98408.91;4515696;31;33320;-84
2022/08/16 08:39:03;;;;;;;;;;;;;;;31.55;31.29;98399.50;4514520;31;34192;-84
2022/08/16 08:41:40;;;;;;;;;;;;;;;29.90;34.45;98401.34;4514400;31;34456;-84
2022/08/16 08:44:09;;;;;;;;;;;;;;;31.08;33.16;98399.84;4515834;31;34058;-85
2022/08/16 08:47:00;;;;;;;;;;;;;;;31.29;32.66;98399.84;4515583;31;33195;-84
2022/08/16 08:49:30;;;;;;;;;;;;;;;31.05;33.60;98397.41;4515423;31;34224;-84
2022/08/16 08:52:13;;;;;;;;;;;;;;;30.78;34.06;98396.06;4515797;31;35128;-84
2022/08/16 08:55:04;;;;;;;;;;;;;;;29.96;35.79;98390.16;4514152;31;32441;-84
2022/08/16 08:57:38;;;;;;;;;;;;;;;30.44;35.42;98392.59;4514466;31;32424;-84
2022/08/16 09:00:10;;;;;;;;;;;;;;;30.17;35.88;98400.16;4514201;31;34273;-83
2022/08/16 09:02:41;;;;;;;;;;;;;;;31.23;34.94;98393.19;4515668;31;35204;-84
2022/08/16 09:05:09;;;;;;;;;;;;;;;31.68;33.41;98386.75;4515293;31;34146;-84
2022/08/16 09:07:43;;;;;;;;;;;;;;;31.76;32.84;98392.28;4515425;31;33322;-84
2022/08/16 09:10:30;;;;;;;;;;;;;;;31.77;32.67;98383.25;4515772;31;35138;-84
2022/08/16 09:12:57;;;;;;;;;;;;;;;32.21;31.43;98389.28;4515350;31;34200;-84
2022/08/16 09:15:26;;;;;;;;;;;;;;;32.51;30.17;98382.19;4515740;31;34753;-84
2022/08/16 09:18:00;;;;;;;;;;;;;;;32.67;30.11;98387.88;4515504;31;34211;-83
2022/08/16 09:20:51;;;;;;;;;;;;;;;32.56;29.09;98377.25;4515452;31;34200;-83
2022/08/16 09:23:27;;;;;;;;;;;;;;;33.43;26.52;98375.44;4515096;31;34948;-83
2022/08/16 09:25:55;;;;;;;;;;;;;;;33.73;25.41;98378.09;4515534;31;35128;-84
2022/08/16 09:28:23;;;;;;;;;;;;;;;33.12;26.51;98363.19;4514083;31;33730;-84
2022/08/16 09:31:14;;;;;;;;;;;;;;;33.64;26.15;98358.28;4514516;31;33428;-84
2022/08/16 09:33:41;;;;;;;;;;;;;;;33.96;26.08;98357.06;4515209;31;35280;-85
2022/08/16 09:36:09;;;;;;;;;;;;;;;33.69;25.94;98358.72;4506624;31;33641;-84
2022/08/16 09:38:57;;;;;;;;;;;;;;;33.74;26.12;98356.41;4515180;31;33539;-85
2022/08/16 09:41:26;;;;;;;;;;;;;;;34.11;25.16;98366.34;4515076;31;34868;-84
2022/08/16 09:43:54;;;;;;;;;;;;;;;33.36;26.61;98358.19;4515432;31;34379;-83
2022/08/16 09:46:27;;;;;;;;;;;;;;;34.28;25.64;98368.22;4514935;31;34120;-84
2022/08/16 09:49:15;;;;;;;;;;;;;;;34.13;24.58;98364.34;4515123;31;33239;-84
2022/08/16 09:51:47;;;;;;;;;;;;;;;34.65;23.86;98364.63;4497141;31;33532;-84
2022/08/16 09:54:15;;;;;;;;;;;;;;;35.26;23.58;98358.47;4511306;31;34224;-84
2022/08/16 09:56:47;;;;;;;;;;;;;;;34.52;24.46;98358.81;4514165;31;34246;-81
2022/08/16 09:59:23;;;;;;;;;;;;;;;34.73;24.33;98359.34;4514984;31;33187;-84
2022/08/16 10:01:57;;;;;;;;;;;;;;;35.02;24.26;98344.84;4515356;31;35051;-83
2022/08/16 10:04:25;;;;;;;;;;;;;;;35.14;24.42;98351.66;4514634;31;35223;-82
2022/08/16 10:07:03;;;;;;;;;;;;;;;36.01;23.04;98344.50;4514887;31;34633;-84
2022/08/16 10:09:43;;;;;;;;;;;;;;;36.71;22.76;98338.81;4513705;31;33134;-84
2022/08/16 10:15:13;;;;;;;;;;;;;;;35.40;23.23;98345.47;4515162;31;33562;-84
2022/08/16 10:17:44;;;;;;;;;;;;;;;36.39;23.17;98336.88;4514867;31;34376;-84
2022/08/16 10:20:33;;;;;;;;;;;;;;;35.94;21.76;98351.53;4514882;31;34477;-83
2022/08/16 10:23:13;;;;;;;;;;;;;;;36.70;20.64;98343.38;4513457;31;34321;-84
2022/08/16 10:25:44;;;;;;;;;;;;;;;36.40;21.07;98341.25;4513270;31;35247;-84
2022/08/16 10:28:31;;;;;;;;;;;;;;;35.69;22.35;98334.38;4498998;31;34295;-84
2022/08/16 10:31:07;;;;;;;;;;;;;;;36.57;21.27;98342.19;4498779;31;33199;-84
2022/08/16 10:33:38;;;;;;;;;;;;;;;37.33;19.78;98341.06;4510381;31;33832;-84
2022/08/16 10:36:07;;;;;;;;;;;;;;;36.55;21.05;98334.25;4513137;31;34194;-85
2022/08/16 10:38:35;;;;;;;;;;;;;;;36.80;20.84;98339.69;4514666;31;34083;-85
2022/08/16 10:41:04;;;;;;;;;;;;;;;37.12;19.37;98336.16;4514682;31;33204;-84
2022/08/16 10:43:34;;;;;;;;;;;;;;;36.55;20.20;98339.63;4514138;31;34732;-84
2022/08/16 10:46:02;;;;;;;;;;;;;;;37.32;19.60;98342.09;4511675;31;34184;-82
2022/08/16 10:48:51;;;;;;;;;;;;;;;37.85;18.83;98340.66;4513939;31;33867;-85
2022/08/16 10:51:18;;;;;;;;;;;;;;;35.95;20.80;98339.72;4514352;31;34132;-84
2022/08/16 10:53:45;;;;;;;;;;;;;;;36.81;19.94;98339.50;4514164;31;34399;-84
2022/08/16 10:56:13;;;;;;;;;;;;;;;36.49;21.29;98340.31;4514255;31;34575;-84
2022/08/16 10:59:00;;;;;;;;;;;;;;;37.50;20.02;98338.19;4514199;31;35094;-84
2022/08/16 11:01:48;;;;;;;;;;;;;;;37.15;19.39;98331.28;4513129;31;34235;-85
2022/08/16 11:04:35;;;;;;;;;;;;;;;37.18;19.25;98324.69;4513660;31;33797;-84
2022/08/16 11:07:22;;;;;;;;;;;;;;;37.61;19.63;98331.56;4514268;31;35274;-84
2022/08/16 11:10:10;;;;;;;;;;;;;;;37.73;19.25;98330.19;4514149;31;34143;-85
2022/08/16 11:13:10;;;;;;;;;;;;;;;38.64;17.59;98317.97;4514025;31;33562;-85
2022/08/16 11:15:57;;;;;;;;;;;;;;;38.97;17.28;98320.44;4513122;31;33876;-85
2022/08/16 11:18:28;;;;;;;;;;;;;;;38.78;18.10;98324.44;4511148;31;34515;-85
2022/08/16 11:21:15;;;;;;;;;;;;;;;37.76;19.21;98318.16;4513143;31;34289;-86
2022/08/16 11:23:56;;;;;;;;;;;;;;;38.01;19.07;98310.84;4513487;31;33731;-85
2022/08/16 11:26:26;;;;;;;;;;;;;;;38.41;18.38;98314.38;4513941;31;34096;-85
2022/08/16 11:28:55;;;;;;;;;;;;;;;37.93;18.95;98314.44;4513541;31;34255;-85
2022/08/16 11:31:42;;;;;;;;;;;;;;;37.35;19.32;98309.28;4512947;31;34137;-85
2022/08/16 11:34:19;;;;;;;;;;;;;;;36.58;20.50;98322.28;4513207;31;33083;-85
2022/08/16 11:36:48;;;;;;;;;;;;;;;35.83;21.16;98321.12;4513981;31;34979;-84
2022/08/16 11:39:27;;;;;;;;;;;;;;;36.67;20.34;98324.84;4513658;31;34002;-84
2022/08/16 11:41:56;;;;;;;;;;;;;;;36.98;19.97;98337.72;4513713;31;34218;-85
2022/08/16 11:44:24;;;;;;;;;;;;;;;35.61;22.81;98351.34;4513271;31;33464;-84
2022/08/16 11:47:11;;;;;;;;;;;;;;;36.00;22.70;98353.63;4513498;31;34159;-84
2022/08/16 11:49:39;;;;;;;;;;;;;;;36.33;22.06;98334.81;4513245;31;34267;-84
2022/08/16 11:52:06;;;;;;;;;;;;;;;35.34;22.27;98339.66;4513170;31;34834;-84
2022/08/16 11:54:33;;;;;;;;;;;;;;;36.01;22.11;98341.81;4512035;31;33639;-84
2022/08/16 11:57:03;;;;;;;;;;;;;;;35.25;23.33;98334.41;4513102;31;34337;-85
2022/08/16 11:59:36;;;;;;;;;;;;;;;35.19;22.88;98345.78;4513397;31;35242;-85
2022/08/16 12:02:06;;;;;;;;;;;;;;;35.88;22.36;98341.38;4515720;31;35209;-84
2022/08/16 12:04:53;;;;;;;;;;;;;;;35.89;21.85;98337.69;4514877;31;34356;-85
2022/08/16 12:07:21;;;;;;;;;;;;;;;35.51;22.07;98337.13;4515683;31;34117;-85
2022/08/16 12:09:50;;;;;;;;;;;;;;;36.25;22.02;98338.34;4515688;31;33889;-85
2022/08/16 12:12:36;;;;;;;;;;;;;;;36.04;21.92;98336.09;4515838;31;34614;-84
2022/08/16 12:15:04;;;;;;;;;;;;;;;37.21;21.31;98330.59;4515635;31;33356;-84
2022/08/16 12:17:32;;;;;;;;;;;;;;;36.87;20.66;98327.22;4515204;31;33815;-84
2022/08/16 12:20:00;;;;;;;;;;;;;;;37.17;20.06;98328.41;4514552;31;35116;-84
2022/08/16 12:22:27;;;;;;;;;;;;;;;36.62;21.50;98326.31;4515669;31;34613;-85
2022/08/16 12:24:55;;;;;;;;;;;;;;;36.81;20.43;98325.16;4515806;31;33438;-84
2022/08/16 12:27:23;;;;;;;;;;;;;;;37.76;19.30;98317.34;4515502;31;34297;-85
2022/08/16 12:29:53;;;;;;;;;;;;;;;37.23;20.80;98308.81;4515693;31;34288;-84
2022/08/16 12:32:25;;;;;;;;;;;;;;;37.20;20.44;98309.13;4515302;31;34235;-84
2022/08/16 12:35:06;;;;;;;;;;;;;;;37.23;19.31;98309.63;4515254;31;33032;-85
2022/08/16 12:37:33;;;;;;;;;;;;;;;37.65;19.55;98316.69;4514495;31;34234;-85
2022/08/16 12:40:01;;;;;;;;;;;;;;;37.29;19.96;98334.31;4515519;31;34071;-84
2022/08/16 12:42:33;;;;;;;;;;;;;;;35.73;22.48;98333.91;4515553;31;35031;-84
2022/08/16 12:45:03;;;;;;;;;;;;;;;36.26;22.18;98353.56;4514753;31;33437;-84
2022/08/16 12:50:18;;;;;;;;;;;;;;;36.34;22.22;98341.94;4514327;31;34404;-85
2022/08/16 12:52:46;;;;;;;;;;;;;;;35.66;22.54;98349.03;4514933;31;33697;-84
2022/08/16 12:55:20;;;;;;;;;;;;;;;35.85;23.14;98352.50;4483529;31;923348;-85
2022/08/16 12:57:52;;;;;;;;;;;;;;;36.08;22.61;98358.19;4514334;31;34309;-84
2022/08/16 13:00:28;;;;;;;;;;;;;;;36.08;22.88;98348.25;4511387;31;33906;-84
2022/08/16 13:03:00;;;;;;;;;;;;;;;35.86;22.97;98346.09;4514760;31;35116;-85
2022/08/16 13:05:28;;;;;;;;;;;;;;;34.68;24.33;98347.34;4515010;31;34289;-85
2022/08/16 13:07:57;;;;;;;;;;;;;;;35.68;22.66;98336.22;4515134;31;35071;-85
2022/08/16 13:10:28;;;;;;;;;;;;;;;36.32;21.89;98333.16;4512962;31;34331;-85
2022/08/16 13:13:05;;;;;;;;;;;;;;;36.56;21.84;98322.44;4513449;31;34271;-84
2022/08/16 13:15:32;;;;;;;;;;;;;;;36.43;22.14;98328.28;4515023;31;32931;-84
2022/08/16 13:18:20;;;;;;;;;;;;;;;35.62;22.63;98327.94;4515299;31;34321;-84
2022/08/16 13:21:01;;;;;;;;;;;;;;;35.97;22.27;98324.22;4515363;31;34115;-85
2022/08/16 13:23:29;;;;;;;;;;;;;;;36.04;21.85;98314.50;4515051;31;34848;-85
2022/08/16 13:25:56;;;;;;;;;;;;;;;35.38;22.34;98307.84;4515428;31;33798;-85
2022/08/16 13:28:23;;;;;;;;;;;;;;;35.60;22.56;98311.06;4514141;31;33954;-84